createdAt,value
2023-01-13T00:00:41.420Z,5.39
2023-01-13T00:04:26.537Z,5.37
2023-01-13T00:08:09.991Z,5.35
2023-01-13T00:11:53.712Z,5.35
2023-01-13T00:15:37.217Z,5.33
2023-01-13T00:19:20.479Z,5.30
2023-01-13T00:23:04.283Z,5.31
2023-01-13T00:26:46.806Z,5.34
2023-01-13T00:30:29.952Z,5.29
2023-01-13T00:34:13.271Z,5.26
2023-01-13T00:37:56.863Z,5.24
2023-01-13T00:41:39.682Z,5.19
2023-01-13T00:45:23.215Z,5.12
2023-01-13T00:49:06.352Z,5.05
2023-01-13T00:52:49.685Z,4.99
2023-01-13T00:56:40.123Z,4.98
2023-01-13T01:00:05.045Z,5.03
2023-01-13T01:03:48.129Z,5.03
2023-01-13T01:07:31.607Z,5.01
2023-01-13T01:11:14.564Z,4.97
2023-01-13T01:14:57.738Z,4.94
2023-01-13T01:18:41.519Z,4.91
2023-01-13T01:22:24.791Z,4.92
2023-01-13T01:26:07.580Z,4.93
2023-01-13T01:29:51.014Z,4.92
2023-01-13T01:33:33.946Z,4.95
2023-01-13T01:37:17.222Z,4.97
2023-01-13T01:41:00.329Z,4.96
2023-01-13T01:44:43.590Z,5.00
2023-01-13T01:48:26.890Z,5.07
2023-01-13T01:52:10.173Z,5.12
2023-01-13T01:55:53.624Z,5.14
2023-01-13T01:59:36.678Z,5.15
2023-01-13T02:03:19.752Z,5.16
2023-01-13T02:07:03.830Z,5.18
2023-01-13T02:10:47.275Z,5.21
2023-01-13T02:14:30.951Z,5.21
2023-01-13T02:18:14.425Z,5.23
2023-01-13T02:21:58.199Z,5.22
2023-01-13T02:25:41.544Z,5.21
2023-01-13T02:29:24.770Z,5.20
2023-01-13T02:33:08.000Z,5.22
2023-01-13T02:36:51.238Z,5.22
2023-01-13T02:40:34.499Z,5.27
2023-01-13T02:44:17.744Z,5.28
2023-01-13T02:48:00.895Z,5.31
2023-01-13T02:51:44.588Z,5.34
2023-01-13T02:55:27.658Z,5.37
2023-01-13T02:59:10.971Z,5.37
2023-01-13T03:02:53.625Z,5.38
2023-01-13T03:06:37.214Z,5.39
2023-01-13T03:10:20.519Z,5.39
2023-01-13T03:14:04.115Z,5.38
2023-01-13T03:17:47.476Z,5.37
2023-01-13T03:21:30.683Z,5.37
2023-01-13T03:25:13.304Z,5.38
2023-01-13T03:28:56.520Z,5.37
2023-01-13T03:32:39.547Z,5.36
2023-01-13T03:36:22.773Z,5.37
2023-01-13T03:40:06.307Z,5.37
2023-01-13T03:43:49.937Z,5.34
2023-01-13T03:47:33.791Z,5.33
2023-01-13T03:51:17.647Z,5.35
2023-01-13T03:55:00.922Z,5.34
2023-01-13T03:58:44.673Z,5.33
2023-01-13T04:02:28.448Z,5.33
2023-01-13T04:06:11.435Z,5.32
2023-01-13T04:09:55.244Z,5.28
2023-01-13T04:13:38.970Z,5.23
2023-01-13T04:17:22.473Z,5.21
2023-01-13T04:21:06.065Z,5.18
2023-01-13T04:24:49.283Z,5.14
2023-01-13T04:28:32.162Z,5.07
2023-01-13T04:32:15.225Z,4.97
2023-01-13T04:35:58.153Z,4.91
2023-01-13T04:39:41.097Z,4.87
2023-01-13T04:43:24.012Z,4.83
2023-01-13T04:47:07.896Z,4.78
2023-01-13T04:50:51.824Z,4.73
2023-01-13T04:54:35.398Z,4.69
2023-01-13T04:58:18.989Z,4.69
2023-01-13T05:02:02.235Z,4.67
2023-01-13T05:05:45.598Z,4.62
2023-01-13T05:09:29.675Z,4.56
2023-01-13T05:13:12.837Z,4.51
2023-01-13T05:16:56.504Z,4.50
2023-01-13T05:20:40.494Z,4.49
2023-01-13T05:24:24.143Z,4.48
2023-01-13T05:28:07.731Z,4.48
2023-01-13T05:31:51.003Z,4.46
2023-01-13T05:35:34.219Z,4.55
2023-01-13T05:39:17.783Z,4.59
2023-01-13T05:43:01.446Z,4.57
2023-01-13T05:46:44.836Z,4.56
2023-01-13T05:50:28.171Z,4.50
2023-01-13T05:54:15.340Z,4.50
2023-01-13T05:57:58.677Z,4.48
2023-01-13T06:01:42.048Z,4.50
2023-01-13T06:05:25.186Z,4.51
2023-01-13T06:09:08.542Z,4.56
2023-01-13T06:12:51.710Z,4.61
2023-01-13T06:16:35.279Z,4.63
2023-01-13T06:20:18.259Z,4.64
2023-01-13T06:24:01.352Z,4.65
2023-01-13T06:27:44.823Z,4.65
2023-01-13T06:31:28.354Z,4.66
2023-01-13T06:35:11.790Z,4.67
2023-01-13T06:38:55.351Z,4.71
2023-01-13T06:42:38.607Z,4.75
2023-01-13T06:46:22.380Z,4.80
2023-01-13T06:50:05.507Z,4.81
2023-01-13T06:53:49.208Z,4.84
2023-01-13T06:57:32.478Z,4.86
2023-01-13T07:01:16.182Z,5.03
2023-01-13T07:04:59.521Z,5.12
2023-01-13T07:08:42.965Z,5.11
2023-01-13T07:12:26.409Z,5.11
2023-01-13T07:16:09.588Z,5.14
2023-01-13T07:19:52.830Z,5.16
2023-01-13T07:23:36.585Z,5.19
2023-01-13T07:27:20.446Z,5.20
2023-01-13T07:31:03.762Z,5.18
2023-01-13T07:34:47.096Z,5.16
2023-01-13T07:38:30.638Z,5.14
2023-01-13T07:42:14.194Z,5.15
2023-01-13T07:45:57.210Z,5.14
2023-01-13T07:49:40.208Z,5.16
2023-01-13T07:53:22.970Z,5.22
2023-01-13T07:57:06.967Z,5.25
2023-01-13T08:00:50.347Z,5.29
2023-01-13T08:04:33.928Z,5.32
2023-01-13T08:08:17.622Z,5.37
2023-01-13T08:12:01.245Z,5.44
2023-01-13T08:15:44.279Z,5.50
2023-01-13T08:19:27.226Z,5.53
2023-01-13T08:23:10.239Z,5.57
2023-01-13T08:26:53.581Z,5.61
2023-01-13T08:30:36.794Z,5.66
2023-01-13T08:34:20.156Z,5.70
2023-01-13T08:38:03.972Z,5.75
2023-01-13T08:41:46.880Z,5.76
2023-01-13T08:45:30.603Z,5.79
2023-01-13T08:49:13.644Z,5.88
2023-01-13T08:52:57.206Z,5.95
2023-01-13T08:56:40.449Z,6.03
2023-01-13T09:00:23.689Z,6.11
2023-01-13T09:04:06.955Z,6.20
2023-01-13T09:07:50.470Z,6.30
2023-01-13T09:11:33.694Z,6.36
2023-01-13T09:15:25.360Z,6.42
2023-01-13T09:19:08.752Z,6.49
2023-01-13T09:22:52.211Z,6.52
2023-01-13T09:26:35.213Z,6.50
2023-01-13T09:30:18.008Z,6.50
2023-01-13T09:34:03.384Z,6.52
2023-01-13T09:37:46.896Z,6.55
2023-01-13T09:41:30.414Z,6.57
2023-01-13T09:45:14.397Z,6.63
2023-01-13T09:48:57.192Z,6.68
2023-01-13T09:52:40.336Z,6.67
2023-01-13T09:56:23.159Z,6.66
2023-01-13T10:00:06.320Z,6.81
2023-01-13T10:03:49.188Z,6.94
2023-01-13T10:07:33.142Z,6.91
2023-01-13T10:11:16.337Z,6.84
2023-01-13T10:14:59.404Z,6.84
2023-01-13T10:18:42.485Z,6.92
2023-01-13T10:22:26.197Z,7.04
2023-01-13T10:26:09.701Z,7.13
2023-01-13T10:29:52.473Z,7.16
2023-01-13T10:33:35.450Z,7.18
2023-01-13T10:37:19.254Z,7.20
2023-01-13T10:41:02.355Z,7.17
2023-01-13T10:44:45.673Z,7.18
2023-01-13T10:48:28.589Z,7.24
2023-01-13T10:52:11.626Z,7.34
2023-01-13T10:55:55.189Z,7.40
2023-01-13T10:59:38.152Z,7.43
2023-01-13T11:03:21.579Z,7.43
2023-01-13T11:07:05.197Z,7.45
2023-01-13T11:10:49.169Z,7.47
2023-01-13T11:14:32.380Z,7.48
2023-01-13T11:18:15.452Z,7.54
2023-01-13T11:21:58.440Z,7.59
2023-01-13T11:25:41.880Z,7.68
2023-01-13T11:29:26.009Z,8.18
2023-01-13T11:33:09.032Z,8.20
2023-01-13T11:36:54.304Z,8.09
2023-01-13T11:40:38.260Z,8.01
2023-01-13T11:44:21.119Z,7.96
2023-01-13T11:48:04.922Z,7.96
2023-01-13T11:51:47.997Z,7.97
2023-01-13T11:55:31.832Z,7.97
2023-01-13T11:59:14.507Z,7.97
2023-01-13T12:02:57.833Z,7.98
2023-01-13T12:06:41.099Z,8.03
2023-01-13T12:10:24.325Z,8.13
2023-01-13T12:14:07.410Z,8.25
2023-01-13T12:17:51.429Z,8.31
2023-01-13T12:21:34.376Z,8.34
2023-01-13T12:25:17.600Z,8.34
2023-01-13T12:29:00.872Z,8.39
2023-01-13T12:32:43.724Z,8.40
2023-01-13T12:36:26.774Z,8.30
2023-01-13T12:40:09.675Z,8.25
2023-01-13T12:43:52.649Z,8.23
2023-01-13T12:47:36.039Z,8.18
2023-01-13T12:51:19.789Z,8.16
2023-01-13T12:55:03.213Z,8.13
2023-01-13T12:58:46.123Z,8.13
2023-01-13T13:02:29.864Z,8.13
2023-01-13T13:06:13.081Z,8.13
2023-01-13T13:09:56.645Z,8.16
2023-01-13T13:13:39.381Z,8.16
2023-01-13T13:17:22.339Z,8.13
2023-01-13T13:21:05.947Z,8.10
2023-01-13T13:24:49.738Z,8.08
2023-01-13T13:28:32.389Z,8.06
2023-01-13T13:32:15.727Z,8.04
2023-01-13T13:35:59.487Z,7.96
2023-01-13T13:39:42.964Z,7.91
2023-01-13T13:43:26.215Z,7.88
2023-01-13T13:47:09.408Z,7.87
2023-01-13T13:50:52.818Z,7.84
2023-01-13T13:54:35.699Z,7.81
2023-01-13T13:58:18.617Z,7.73
2023-01-13T14:02:02.001Z,7.61
2023-01-13T14:05:44.937Z,7.50
2023-01-13T14:09:28.227Z,7.39
2023-01-13T14:13:11.904Z,7.24
2023-01-13T14:16:54.770Z,7.13
2023-01-13T14:20:38.744Z,7.11
2023-01-13T14:24:21.907Z,7.08
2023-01-13T14:28:05.755Z,6.97
2023-01-13T14:31:48.259Z,6.87
2023-01-13T14:35:32.181Z,6.77
2023-01-13T14:39:15.041Z,6.68
2023-01-13T14:42:58.544Z,6.60
2023-01-13T14:46:41.673Z,6.49
2023-01-13T14:50:27.605Z,6.41
2023-01-13T14:54:10.746Z,6.33
2023-01-13T14:57:53.967Z,6.27
2023-01-13T15:01:37.246Z,6.20
2023-01-13T15:05:23.134Z,6.13
2023-01-13T15:09:06.726Z,6.08
2023-01-13T15:12:49.876Z,6.04
2023-01-13T15:16:35.037Z,6.00
2023-01-13T15:20:18.434Z,5.93
2023-01-13T15:24:01.809Z,5.87
2023-01-13T15:27:44.568Z,5.83
2023-01-13T15:31:27.948Z,5.84
2023-01-13T15:35:11.129Z,5.83
2023-01-13T15:38:54.207Z,5.82
2023-01-13T15:42:37.668Z,5.83
2023-01-13T15:46:21.145Z,5.84
2023-01-13T15:50:04.826Z,5.85
2023-01-13T15:53:48.455Z,5.85
2023-01-13T15:57:31.518Z,5.84
2023-01-13T16:01:14.399Z,5.85
2023-01-13T16:04:57.313Z,5.85
2023-01-13T16:08:40.305Z,5.84
2023-01-13T16:12:23.656Z,5.83
2023-01-13T16:16:13.068Z,5.81
2023-01-13T16:19:56.461Z,5.77
2023-01-13T16:23:40.007Z,5.75
2023-01-13T16:27:23.878Z,5.76
2023-01-13T16:31:07.247Z,5.75
2023-01-13T16:34:50.525Z,5.73
2023-01-13T16:38:33.610Z,5.73
2023-01-13T16:42:16.865Z,5.73
2023-01-13T16:46:00.136Z,5.70
2023-01-13T16:49:43.199Z,5.68
2023-01-13T16:53:26.382Z,5.68
2023-01-13T16:57:09.728Z,5.68
2023-01-13T17:00:52.615Z,5.68
2023-01-13T17:04:36.176Z,5.70
2023-01-13T17:08:19.228Z,5.72
2023-01-13T17:12:02.217Z,5.74
2023-01-13T17:15:45.359Z,5.76
2023-01-13T17:19:28.488Z,5.76
2023-01-13T17:23:12.176Z,5.78
2023-01-13T17:26:56.005Z,5.81
2023-01-13T17:30:41.083Z,5.80
2023-01-13T17:34:25.545Z,5.79
2023-01-13T17:38:09.307Z,5.80
2023-01-13T17:41:52.457Z,5.81
2023-01-13T17:45:35.775Z,5.82
2023-01-13T17:49:19.225Z,5.83
2023-01-13T17:53:02.666Z,5.83
2023-01-13T17:56:45.332Z,5.79
2023-01-13T18:00:28.654Z,5.76
2023-01-13T18:04:11.524Z,5.76
2023-01-13T18:07:54.756Z,5.74
2023-01-13T18:11:38.243Z,5.74
2023-01-13T18:15:21.775Z,5.73
2023-01-13T18:19:04.804Z,5.72
2023-01-13T18:22:47.838Z,5.68
2023-01-13T18:26:31.190Z,5.62
2023-01-13T18:30:14.742Z,5.59
2023-01-13T18:33:57.896Z,5.53
2023-01-13T18:37:41.232Z,5.47
2023-01-13T18:41:24.290Z,5.41
2023-01-13T18:45:07.091Z,5.38
2023-01-13T18:48:50.042Z,5.37
2023-01-13T18:52:32.872Z,5.39
2023-01-13T18:56:16.059Z,5.39
2023-01-13T18:59:59.082Z,5.42
2023-01-13T19:03:42.497Z,5.45
2023-01-13T19:07:26.145Z,5.44
2023-01-13T19:11:09.903Z,5.45
2023-01-13T19:14:52.941Z,5.43
2023-01-13T19:18:36.626Z,5.42
2023-01-13T19:22:19.849Z,5.39
2023-01-13T19:26:02.898Z,5.33
2023-01-13T19:29:52.180Z,5.30
2023-01-13T19:33:36.374Z,5.24
2023-01-13T19:37:19.936Z,5.19
2023-01-13T19:41:03.782Z,5.15
2023-01-13T19:44:46.624Z,5.11
2023-01-13T19:48:29.895Z,5.09
2023-01-13T19:52:13.357Z,5.11
2023-01-13T19:55:56.396Z,5.11
2023-01-13T19:59:39.499Z,5.09
2023-01-13T20:03:23.005Z,5.06
2023-01-13T20:07:06.536Z,5.00
2023-01-13T20:10:49.685Z,4.97
2023-01-13T20:14:33.057Z,4.97
2023-01-13T20:18:16.798Z,4.98
2023-01-13T20:21:59.824Z,4.97
2023-01-13T20:25:43.218Z,4.95
2023-01-13T20:29:26.403Z,4.93
2023-01-13T20:33:10.335Z,4.90
2023-01-13T20:36:53.129Z,4.85
2023-01-13T20:40:36.470Z,4.78
2023-01-13T20:44:20.124Z,4.74
2023-01-13T20:48:02.772Z,4.68
2023-01-13T20:51:46.442Z,4.64
2023-01-13T20:55:29.636Z,4.59
2023-01-13T20:59:12.878Z,4.52
2023-01-13T21:02:56.169Z,4.46
2023-01-13T21:06:39.547Z,4.43
2023-01-13T21:10:22.701Z,4.41
2023-01-13T21:14:06.075Z,4.38
2023-01-13T21:17:49.733Z,4.36
2023-01-13T21:21:33.009Z,4.34
2023-01-13T21:25:15.869Z,4.32
2023-01-13T21:28:58.854Z,4.28
2023-01-13T21:32:41.988Z,4.25
2023-01-13T21:36:25.442Z,4.21
2023-01-13T21:40:09.124Z,4.18
2023-01-13T21:43:53.259Z,4.17
2023-01-13T21:47:36.906Z,4.18
2023-01-13T21:51:20.171Z,4.17
2023-01-13T21:55:03.779Z,4.14
2023-01-13T21:58:46.952Z,4.11
2023-01-13T22:02:30.236Z,4.12
2023-01-13T22:06:13.367Z,4.14
2023-01-13T22:09:56.807Z,4.12
2023-01-13T22:13:41.288Z,4.10
2023-01-13T22:17:24.571Z,4.09
2023-01-13T22:21:07.842Z,4.03
2023-01-13T22:24:51.310Z,3.99
2023-01-13T22:28:34.075Z,3.96
2023-01-13T22:32:17.750Z,3.94
2023-01-13T22:36:01.664Z,3.94
2023-01-13T22:39:44.830Z,3.94
2023-01-13T22:43:28.132Z,3.96
2023-01-13T22:47:11.209Z,3.97
2023-01-13T22:50:54.223Z,3.96
2023-01-13T22:54:37.875Z,3.97
2023-01-13T22:58:21.027Z,3.97
2023-01-13T23:02:04.413Z,3.97
2023-01-13T23:05:48.440Z,3.98
2023-01-13T23:09:31.939Z,4.00
2023-01-13T23:13:15.187Z,4.00
2023-01-13T23:16:58.601Z,4.03
2023-01-13T23:20:41.807Z,4.05
2023-01-13T23:24:25.593Z,4.08
2023-01-13T23:28:08.979Z,4.10
2023-01-13T23:31:52.441Z,4.13
2023-01-13T23:35:35.934Z,4.17
2023-01-13T23:39:19.685Z,4.20
2023-01-13T23:43:03.571Z,4.21
2023-01-13T23:46:46.806Z,4.25
2023-01-13T23:50:30.778Z,4.30
2023-01-13T23:54:13.883Z,4.33
2023-01-13T23:57:56.933Z,4.35
